sensor_id;sensor_type;location;lat;lon;timestamp;P1;durP1;ratioP1;P2;durP2;ratioP2
4434;SDS011;46552;52.150;8.428;2022-11-15T00:01:00;26.67;;;15.27;;
4434;SDS011;46552;52.150;8.428;2022-11-15T00:03:27;20.20;;;12.13;;
4434;SDS011;46552;52.150;8.428;2022-11-15T00:05:55;25.70;;;12.60;;
4434;SDS011;46552;52.150;8.428;2022-11-15T00:08:28;22.07;;;14.33;;
4434;SDS011;46552;52.150;8.428;2022-11-15T00:10:57;20.40;;;12.87;;
4434;SDS011;46552;52.150;8.428;2022-11-15T00:13:25;24.50;;;13.70;;
4434;SDS011;46552;52.150;8.428;2022-11-15T00:15:53;21.33;;;12.43;;
4434;SDS011;46552;52.150;8.428;2022-11-15T00:18:26;19.77;;;12.77;;
4434;SDS011;46552;52.150;8.428;2022-11-15T00:20:54;23.03;;;12.27;;
4434;SDS011;46552;52.150;8.428;2022-11-15T00:23:21;23.93;;;11.70;;
4434;SDS011;46552;52.150;8.428;2022-11-15T00:25:54;21.50;;;12.60;;
4434;SDS011;46552;52.150;8.428;2022-11-15T00:28:22;25.23;;;12.80;;
4434;SDS011;46552;52.150;8.428;2022-11-15T00:30:49;22.67;;;12.50;;
4434;SDS011;46552;52.150;8.428;2022-11-15T00:33:16;23.27;;;11.37;;
4434;SDS011;46552;52.150;8.428;2022-11-15T00:35:46;17.10;;;10.63;;
4434;SDS011;46552;52.150;8.428;2022-11-15T00:38:14;20.10;;;11.80;;
4434;SDS011;46552;52.150;8.428;2022-11-15T00:40:41;19.07;;;10.67;;
4434;SDS011;46552;52.150;8.428;2022-11-15T00:43:08;21.20;;;11.93;;
4434;SDS011;46552;52.150;8.428;2022-11-15T00:45:35;23.77;;;11.57;;
4434;SDS011;46552;52.150;8.428;2022-11-15T00:48:03;18.60;;;10.97;;
4434;SDS011;46552;52.150;8.428;2022-11-15T00:50:31;22.13;;;10.03;;
4434;SDS011;46552;52.150;8.428;2022-11-15T00:53:00;17.37;;;11.10;;
4434;SDS011;46552;52.150;8.428;2022-11-15T00:55:27;19.30;;;10.47;;
4434;SDS011;46552;52.150;8.428;2022-11-15T00:57:55;18.07;;;10.03;;
4434;SDS011;46552;52.150;8.428;2022-11-15T01:00:22;21.97;;;12.07;;
4434;SDS011;46552;52.150;8.428;2022-11-15T01:02:49;18.20;;;10.50;;
4434;SDS011;46552;52.150;8.428;2022-11-15T01:05:16;17.30;;;10.20;;
4434;SDS011;46552;52.150;8.428;2022-11-15T01:07:44;17.10;;;9.03;;
4434;SDS011;46552;52.150;8.428;2022-11-15T01:10:12;16.20;;;9.20;;
4434;SDS011;46552;52.150;8.428;2022-11-15T01:12:39;19.40;;;10.20;;
4434;SDS011;46552;52.150;8.428;2022-11-15T01:15:07;15.30;;;8.77;;
4434;SDS011;46552;52.150;8.428;2022-11-15T01:17:36;16.70;;;8.67;;
4434;SDS011;46552;52.150;8.428;2022-11-15T01:20:04;15.00;;;9.47;;
4434;SDS011;46552;52.150;8.428;2022-11-15T01:22:31;14.50;;;9.13;;
4434;SDS011;46552;52.150;8.428;2022-11-15T01:24:59;13.83;;;8.40;;
4434;SDS011;46552;52.150;8.428;2022-11-15T01:27:27;22.13;;;9.97;;
4434;SDS011;46552;52.150;8.428;2022-11-15T01:29:54;15.80;;;8.60;;
4434;SDS011;46552;52.150;8.428;2022-11-15T01:32:21;18.03;;;8.50;;
4434;SDS011;46552;52.150;8.428;2022-11-15T01:34:48;16.80;;;8.40;;
4434;SDS011;46552;52.150;8.428;2022-11-15T01:37:15;16.97;;;7.60;;
4434;SDS011;46552;52.150;8.428;2022-11-15T01:39:42;14.30;;;8.63;;
4434;SDS011;46552;52.150;8.428;2022-11-15T01:42:12;16.80;;;7.90;;
4434;SDS011;46552;52.150;8.428;2022-11-15T01:44:43;14.37;;;8.20;;
4434;SDS011;46552;52.150;8.428;2022-11-15T01:47:14;11.50;;;7.70;;
4434;SDS011;46552;52.150;8.428;2022-11-15T01:49:47;12.97;;;7.37;;
4434;SDS011;46552;52.150;8.428;2022-11-15T01:52:19;13.00;;;8.40;;
4434;SDS011;46552;52.150;8.428;2022-11-15T01:54:49;14.57;;;7.80;;
4434;SDS011;46552;52.150;8.428;2022-11-15T01:57:20;12.60;;;6.90;;
4434;SDS011;46552;52.150;8.428;2022-11-15T01:59:48;14.80;;;8.30;;
4434;SDS011;46552;52.150;8.428;2022-11-15T02:02:15;14.40;;;8.30;;
4434;SDS011;46552;52.150;8.428;2022-11-15T02:04:43;14.80;;;8.40;;
4434;SDS011;46552;52.150;8.428;2022-11-15T02:07:12;15.37;;;8.77;;
4434;SDS011;46552;52.150;8.428;2022-11-15T02:09:43;17.30;;;9.10;;
4434;SDS011;46552;52.150;8.428;2022-11-15T02:12:13;14.60;;;7.70;;
4434;SDS011;46552;52.150;8.428;2022-11-15T02:14:44;14.27;;;8.03;;
4434;SDS011;46552;52.150;8.428;2022-11-15T02:17:20;18.10;;;8.10;;
4434;SDS011;46552;52.150;8.428;2022-11-15T02:20:04;18.80;;;8.47;;
4434;SDS011;46552;52.150;8.428;2022-11-15T02:23:03;13.73;;;8.40;;
4434;SDS011;46552;52.150;8.428;2022-11-15T02:25:44;20.30;;;8.30;;
4434;SDS011;46552;52.150;8.428;2022-11-15T02:31:16;14.50;;;8.70;;
4434;SDS011;46552;52.150;8.428;2022-11-15T02:33:53;13.13;;;8.23;;
4434;SDS011;46552;52.150;8.428;2022-11-15T02:36:29;15.73;;;8.23;;
4434;SDS011;46552;52.150;8.428;2022-11-15T02:39:07;14.07;;;7.93;;
4434;SDS011;46552;52.150;8.428;2022-11-15T02:41:46;11.90;;;6.97;;
4434;SDS011;46552;52.150;8.428;2022-11-15T02:44:17;14.33;;;7.77;;
4434;SDS011;46552;52.150;8.428;2022-11-15T02:46:52;15.70;;;8.10;;
4434;SDS011;46552;52.150;8.428;2022-11-15T02:49:39;13.90;;;8.63;;
4434;SDS011;46552;52.150;8.428;2022-11-15T02:52:08;12.03;;;7.77;;
4434;SDS011;46552;52.150;8.428;2022-11-15T02:54:35;12.90;;;8.77;;
4434;SDS011;46552;52.150;8.428;2022-11-15T02:57:03;14.87;;;8.17;;
4434;SDS011;46552;52.150;8.428;2022-11-15T02:59:41;15.00;;;8.83;;
4434;SDS011;46552;52.150;8.428;2022-11-15T03:02:36;14.00;;;8.00;;
4434;SDS011;46552;52.150;8.428;2022-11-15T03:05:24;15.23;;;6.87;;
4434;SDS011;46552;52.150;8.428;2022-11-15T03:07:58;13.47;;;8.50;;
4434;SDS011;46552;52.150;8.428;2022-11-15T03:10:32;13.17;;;8.37;;
4434;SDS011;46552;52.150;8.428;2022-11-15T03:13:10;15.17;;;8.70;;
4434;SDS011;46552;52.150;8.428;2022-11-15T03:15:47;20.20;;;9.07;;
4434;SDS011;46552;52.150;8.428;2022-11-15T03:18:23;16.43;;;9.93;;
4434;SDS011;46552;52.150;8.428;2022-11-15T03:20:58;32.63;;;9.13;;
4434;SDS011;46552;52.150;8.428;2022-11-15T03:23:28;14.00;;;8.13;;
4434;SDS011;46552;52.150;8.428;2022-11-15T03:25:56;13.43;;;8.07;;
4434;SDS011;46552;52.150;8.428;2022-11-15T03:28:27;21.20;;;8.90;;
4434;SDS011;46552;52.150;8.428;2022-11-15T03:31:02;20.17;;;9.57;;
4434;SDS011;46552;52.150;8.428;2022-11-15T03:33:53;15.37;;;7.83;;
4434;SDS011;46552;52.150;8.428;2022-11-15T03:36:23;12.20;;;8.13;;
4434;SDS011;46552;52.150;8.428;2022-11-15T03:38:52;20.13;;;9.27;;
4434;SDS011;46552;52.150;8.428;2022-11-15T03:41:23;15.13;;;9.23;;
4434;SDS011;46552;52.150;8.428;2022-11-15T03:43:56;14.73;;;9.60;;
4434;SDS011;46552;52.150;8.428;2022-11-15T03:46:31;18.80;;;9.40;;
4434;SDS011;46552;52.150;8.428;2022-11-15T03:49:04;18.63;;;8.80;;
4434;SDS011;46552;52.150;8.428;2022-11-15T03:51:35;17.20;;;8.90;;
4434;SDS011;46552;52.150;8.428;2022-11-15T03:54:03;15.47;;;8.80;;
4434;SDS011;46552;52.150;8.428;2022-11-15T03:56:31;14.77;;;9.87;;
4434;SDS011;46552;52.150;8.428;2022-11-15T03:58:58;15.13;;;8.60;;
4434;SDS011;46552;52.150;8.428;2022-11-15T04:01:25;16.87;;;10.17;;
4434;SDS011;46552;52.150;8.428;2022-11-15T04:03:52;17.63;;;9.13;;
4434;SDS011;46552;52.150;8.428;2022-11-15T04:06:21;21.93;;;9.77;;
4434;SDS011;46552;52.150;8.428;2022-11-15T04:08:49;18.77;;;9.23;;
4434;SDS011;46552;52.150;8.428;2022-11-15T04:11:16;15.37;;;9.73;;
4434;SDS011;46552;52.150;8.428;2022-11-15T04:13:43;15.83;;;9.20;;
4434;SDS011;46552;52.150;8.428;2022-11-15T04:16:10;15.70;;;9.63;;
4434;SDS011;46552;52.150;8.428;2022-11-15T04:18:37;16.43;;;9.60;;
4434;SDS011;46552;52.150;8.428;2022-11-15T04:21:04;18.00;;;11.00;;
4434;SDS011;46552;52.150;8.428;2022-11-15T04:23:50;18.97;;;11.10;;
4434;SDS011;46552;52.150;8.428;2022-11-15T04:26:34;14.80;;;9.20;;
4434;SDS011;46552;52.150;8.428;2022-11-15T04:29:01;15.67;;;9.80;;
4434;SDS011;46552;52.150;8.428;2022-11-15T04:31:42;16.70;;;9.17;;
4434;SDS011;46552;52.150;8.428;2022-11-15T04:34:09;13.00;;;8.80;;
4434;SDS011;46552;52.150;8.428;2022-11-15T04:36:36;17.57;;;8.87;;
4434;SDS011;46552;52.150;8.428;2022-11-15T04:39:22;15.27;;;9.07;;
4434;SDS011;46552;52.150;8.428;2022-11-15T04:41:49;17.10;;;8.40;;
4434;SDS011;46552;52.150;8.428;2022-11-15T04:44:16;20.30;;;9.40;;
4434;SDS011;46552;52.150;8.428;2022-11-15T04:46:43;15.97;;;9.27;;
4434;SDS011;46552;52.150;8.428;2022-11-15T04:49:10;20.40;;;9.50;;
4434;SDS011;46552;52.150;8.428;2022-11-15T04:51:38;24.53;;;10.37;;
4434;SDS011;46552;52.150;8.428;2022-11-15T04:54:06;18.20;;;10.50;;
4434;SDS011;46552;52.150;8.428;2022-11-15T04:56:36;16.60;;;10.00;;
4434;SDS011;46552;52.150;8.428;2022-11-15T04:59:04;19.00;;;10.20;;
4434;SDS011;46552;52.150;8.428;2022-11-15T05:01:31;20.20;;;9.30;;
4434;SDS011;46552;52.150;8.428;2022-11-15T05:03:59;15.07;;;9.50;;
4434;SDS011;46552;52.150;8.428;2022-11-15T05:06:43;24.07;;;10.57;;
4434;SDS011;46552;52.150;8.428;2022-11-15T05:09:11;22.27;;;10.80;;
4434;SDS011;46552;52.150;8.428;2022-11-15T05:11:40;14.97;;;9.77;;
4434;SDS011;46552;52.150;8.428;2022-11-15T05:14:07;20.23;;;10.73;;
4434;SDS011;46552;52.150;8.428;2022-11-15T05:16:35;18.13;;;10.77;;
4434;SDS011;46552;52.150;8.428;2022-11-15T05:19:03;17.30;;;10.70;;
4434;SDS011;46552;52.150;8.428;2022-11-15T05:21:31;21.50;;;10.60;;
4434;SDS011;46552;52.150;8.428;2022-11-15T05:23:59;20.00;;;10.33;;
4434;SDS011;46552;52.150;8.428;2022-11-15T05:26:26;17.50;;;10.83;;
4434;SDS011;46552;52.150;8.428;2022-11-15T05:28:55;25.40;;;14.57;;
4434;SDS011;46552;52.150;8.428;2022-11-15T05:31:24;21.20;;;13.93;;
4434;SDS011;46552;52.150;8.428;2022-11-15T05:33:52;20.10;;;12.50;;
4434;SDS011;46552;52.150;8.428;2022-11-15T05:36:25;22.57;;;13.20;;
4434;SDS011;46552;52.150;8.428;2022-11-15T05:38:58;20.40;;;12.67;;
4434;SDS011;46552;52.150;8.428;2022-11-15T05:41:26;23.63;;;12.03;;
4434;SDS011;46552;52.150;8.428;2022-11-15T05:43:58;24.83;;;13.07;;
4434;SDS011;46552;52.150;8.428;2022-11-15T05:46:27;23.47;;;11.57;;
4434;SDS011;46552;52.150;8.428;2022-11-15T05:48:55;23.00;;;10.67;;
4434;SDS011;46552;52.150;8.428;2022-11-15T05:51:23;16.20;;;10.97;;
4434;SDS011;46552;52.150;8.428;2022-11-15T05:53:52;21.13;;;12.13;;
4434;SDS011;46552;52.150;8.428;2022-11-15T05:56:23;21.93;;;11.87;;
4434;SDS011;46552;52.150;8.428;2022-11-15T05:58:52;19.50;;;11.63;;
4434;SDS011;46552;52.150;8.428;2022-11-15T06:01:22;24.40;;;11.93;;
4434;SDS011;46552;52.150;8.428;2022-11-15T06:03:51;14.73;;;10.30;;
4434;SDS011;46552;52.150;8.428;2022-11-15T06:06:19;21.43;;;13.07;;
4434;SDS011;46552;52.150;8.428;2022-11-15T06:08:48;22.90;;;13.50;;
4434;SDS011;46552;52.150;8.428;2022-11-15T06:11:15;30.13;;;11.57;;
4434;SDS011;46552;52.150;8.428;2022-11-15T06:13:42;26.33;;;13.70;;
4434;SDS011;46552;52.150;8.428;2022-11-15T06:16:10;19.37;;;11.00;;
4434;SDS011;46552;52.150;8.428;2022-11-15T06:18:38;24.97;;;14.80;;
4434;SDS011;46552;52.150;8.428;2022-11-15T06:21:06;28.40;;;13.33;;
4434;SDS011;46552;52.150;8.428;2022-11-15T06:23:34;24.63;;;13.37;;
4434;SDS011;46552;52.150;8.428;2022-11-15T06:26:02;20.50;;;11.93;;
4434;SDS011;46552;52.150;8.428;2022-11-15T06:28:30;20.03;;;12.03;;
4434;SDS011;46552;52.150;8.428;2022-11-15T06:31:01;16.73;;;10.87;;
4434;SDS011;46552;52.150;8.428;2022-11-15T06:33:31;26.00;;;12.83;;
4434;SDS011;46552;52.150;8.428;2022-11-15T06:36:02;22.23;;;11.50;;
4434;SDS011;46552;52.150;8.428;2022-11-15T06:38:31;17.57;;;10.70;;
4434;SDS011;46552;52.150;8.428;2022-11-15T06:41:01;17.83;;;11.07;;
4434;SDS011;46552;52.150;8.428;2022-11-15T06:43:29;18.83;;;11.80;;
4434;SDS011;46552;52.150;8.428;2022-11-15T06:45:57;17.67;;;11.30;;
4434;SDS011;46552;52.150;8.428;2022-11-15T06:48:24;20.30;;;11.27;;
4434;SDS011;46552;52.150;8.428;2022-11-15T06:50:52;19.87;;;11.00;;
4434;SDS011;46552;52.150;8.428;2022-11-15T06:53:21;14.37;;;9.80;;
4434;SDS011;46552;52.150;8.428;2022-11-15T06:55:49;15.10;;;10.13;;
4434;SDS011;46552;52.150;8.428;2022-11-15T06:58:16;20.40;;;11.20;;
4434;SDS011;46552;52.150;8.428;2022-11-15T07:00:43;17.70;;;10.83;;
4434;SDS011;46552;52.150;8.428;2022-11-15T07:03:11;17.73;;;10.57;;
4434;SDS011;46552;52.150;8.428;2022-11-15T07:05:38;14.97;;;9.23;;
4434;SDS011;46552;52.150;8.428;2022-11-15T07:08:05;20.50;;;10.20;;
4434;SDS011;46552;52.150;8.428;2022-11-15T07:10:35;21.40;;;10.73;;
4434;SDS011;46552;52.150;8.428;2022-11-15T07:13:02;16.47;;;9.83;;
4434;SDS011;46552;52.150;8.428;2022-11-15T07:15:29;18.20;;;9.77;;
4434;SDS011;46552;52.150;8.428;2022-11-15T07:17:59;15.80;;;9.90;;
4434;SDS011;46552;52.150;8.428;2022-11-15T07:20:27;16.63;;;9.90;;
4434;SDS011;46552;52.150;8.428;2022-11-15T07:22:58;15.90;;;10.40;;
4434;SDS011;46552;52.150;8.428;2022-11-15T07:25:27;14.40;;;8.80;;
4434;SDS011;46552;52.150;8.428;2022-11-15T07:27:55;14.40;;;8.87;;
4434;SDS011;46552;52.150;8.428;2022-11-15T07:30:23;11.10;;;7.30;;
4434;SDS011;46552;52.150;8.428;2022-11-15T07:32:52;15.50;;;8.57;;
4434;SDS011;46552;52.150;8.428;2022-11-15T07:35:19;14.50;;;8.57;;
4434;SDS011;46552;52.150;8.428;2022-11-15T07:37:52;13.00;;;7.57;;
4434;SDS011;46552;52.150;8.428;2022-11-15T07:40:21;11.93;;;7.07;;
4434;SDS011;46552;52.150;8.428;2022-11-15T07:42:48;14.53;;;7.90;;
4434;SDS011;46552;52.150;8.428;2022-11-15T07:45:23;13.57;;;8.40;;
4434;SDS011;46552;52.150;8.428;2022-11-15T07:47:52;12.73;;;8.43;;
4434;SDS011;46552;52.150;8.428;2022-11-15T07:50:20;14.37;;;8.00;;
4434;SDS011;46552;52.150;8.428;2022-11-15T07:52:52;15.63;;;8.60;;
4434;SDS011;46552;52.150;8.428;2022-11-15T07:55:20;17.77;;;8.03;;
4434;SDS011;46552;52.150;8.428;2022-11-15T07:57:47;16.77;;;7.40;;
4434;SDS011;46552;52.150;8.428;2022-11-15T08:00:15;10.50;;;7.03;;
4434;SDS011;46552;52.150;8.428;2022-11-15T08:02:47;12.10;;;7.60;;
4434;SDS011;46552;52.150;8.428;2022-11-15T08:05:14;20.60;;;9.93;;
4434;SDS011;46552;52.150;8.428;2022-11-15T08:07:42;16.23;;;7.60;;
4434;SDS011;46552;52.150;8.428;2022-11-15T08:10:09;9.50;;;6.60;;
4434;SDS011;46552;52.150;8.428;2022-11-15T08:12:37;11.90;;;6.87;;
4434;SDS011;46552;52.150;8.428;2022-11-15T08:15:05;16.17;;;7.27;;
4434;SDS011;46552;52.150;8.428;2022-11-15T08:17:33;12.97;;;8.20;;
4434;SDS011;46552;52.150;8.428;2022-11-15T08:20:02;12.53;;;7.00;;
4434;SDS011;46552;52.150;8.428;2022-11-15T08:22:30;10.27;;;6.47;;
4434;SDS011;46552;52.150;8.428;2022-11-15T08:24:57;12.90;;;7.50;;
4434;SDS011;46552;52.150;8.428;2022-11-15T08:27:24;12.93;;;7.40;;
4434;SDS011;46552;52.150;8.428;2022-11-15T08:29:51;11.50;;;6.90;;
4434;SDS011;46552;52.150;8.428;2022-11-15T08:32:19;9.40;;;5.43;;
4434;SDS011;46552;52.150;8.428;2022-11-15T08:34:47;11.93;;;6.63;;
4434;SDS011;46552;52.150;8.428;2022-11-15T08:37:15;9.07;;;5.33;;
4434;SDS011;46552;52.150;8.428;2022-11-15T08:39:42;8.10;;;5.27;;
4434;SDS011;46552;52.150;8.428;2022-11-15T08:42:09;8.90;;;4.43;;
4434;SDS011;46552;52.150;8.428;2022-11-15T08:44:38;8.67;;;4.83;;
4434;SDS011;46552;52.150;8.428;2022-11-15T08:47:05;7.67;;;5.17;;
4434;SDS011;46552;52.150;8.428;2022-11-15T08:49:33;7.80;;;4.50;;
4434;SDS011;46552;52.150;8.428;2022-11-15T08:52:00;10.83;;;4.50;;
4434;SDS011;46552;52.150;8.428;2022-11-15T08:54:29;8.20;;;4.57;;
4434;SDS011;46552;52.150;8.428;2022-11-15T08:56:56;6.10;;;3.90;;
4434;SDS011;46552;52.150;8.428;2022-11-15T08:59:24;7.23;;;4.30;;
4434;SDS011;46552;52.150;8.428;2022-11-15T09:01:51;5.87;;;3.97;;
4434;SDS011;46552;52.150;8.428;2022-11-15T09:04:18;8.87;;;3.80;;
4434;SDS011;46552;52.150;8.428;2022-11-15T09:06:46;5.33;;;2.80;;
4434;SDS011;46552;52.150;8.428;2022-11-15T09:09:13;5.10;;;3.33;;
4434;SDS011;46552;52.150;8.428;2022-11-15T09:11:45;13.93;;;3.70;;
4434;SDS011;46552;52.150;8.428;2022-11-15T09:14:12;9.70;;;3.27;;
4434;SDS011;46552;52.150;8.428;2022-11-15T09:16:40;6.73;;;3.10;;
4434;SDS011;46552;52.150;8.428;2022-11-15T09:19:08;11.80;;;2.93;;
4434;SDS011;46552;52.150;8.428;2022-11-15T09:21:35;6.40;;;3.53;;
4434;SDS011;46552;52.150;8.428;2022-11-15T09:24:02;5.43;;;2.47;;
4434;SDS011;46552;52.150;8.428;2022-11-15T09:26:30;6.63;;;3.20;;
4434;SDS011;46552;52.150;8.428;2022-11-15T09:28:59;4.93;;;3.17;;
4434;SDS011;46552;52.150;8.428;2022-11-15T09:31:30;4.67;;;2.97;;
4434;SDS011;46552;52.150;8.428;2022-11-15T09:33:57;5.90;;;3.00;;
4434;SDS011;46552;52.150;8.428;2022-11-15T09:36:25;6.97;;;2.50;;
4434;SDS011;46552;52.150;8.428;2022-11-15T09:38:52;4.27;;;2.60;;
4434;SDS011;46552;52.150;8.428;2022-11-15T09:41:29;5.53;;;2.83;;
4434;SDS011;46552;52.150;8.428;2022-11-15T09:44:31;3.73;;;2.30;;
4434;SDS011;46552;52.150;8.428;2022-11-15T09:47:28;3.50;;;1.97;;
4434;SDS011;46552;52.150;8.428;2022-11-15T09:50:08;5.50;;;2.30;;
4434;SDS011;46552;52.150;8.428;2022-11-15T09:52:37;3.00;;;1.90;;
4434;SDS011;46552;52.150;8.428;2022-11-15T09:55:09;7.93;;;1.83;;
4434;SDS011;46552;52.150;8.428;2022-11-15T09:57:40;6.17;;;2.50;;
4434;SDS011;46552;52.150;8.428;2022-11-15T10:00:17;6.60;;;2.63;;
4434;SDS011;46552;52.150;8.428;2022-11-15T10:02:50;5.13;;;2.40;;
4434;SDS011;46552;52.150;8.428;2022-11-15T10:05:31;9.60;;;2.30;;
4434;SDS011;46552;52.150;8.428;2022-11-15T10:08:06;7.30;;;1.87;;
4434;SDS011;46552;52.150;8.428;2022-11-15T10:10:43;6.77;;;1.50;;
4434;SDS011;46552;52.150;8.428;2022-11-15T10:13:13;10.80;;;2.57;;
4434;SDS011;46552;52.150;8.428;2022-11-15T10:15:48;3.90;;;2.70;;
4434;SDS011;46552;52.150;8.428;2022-11-15T10:18:18;5.50;;;2.20;;
4434;SDS011;46552;52.150;8.428;2022-11-15T10:20:55;3.47;;;1.93;;
4434;SDS011;46552;52.150;8.428;2022-11-15T10:23:25;8.10;;;1.90;;
4434;SDS011;46552;52.150;8.428;2022-11-15T10:25:55;3.37;;;2.07;;
4434;SDS011;46552;52.150;8.428;2022-11-15T10:28:25;4.17;;;1.80;;
4434;SDS011;46552;52.150;8.428;2022-11-15T10:30:58;4.33;;;1.87;;
4434;SDS011;46552;52.150;8.428;2022-11-15T10:33:27;3.50;;;1.40;;
4434;SDS011;46552;52.150;8.428;2022-11-15T10:36:15;4.83;;;1.57;;
4434;SDS011;46552;52.150;8.428;2022-11-15T10:38:52;2.90;;;1.80;;
4434;SDS011;46552;52.150;8.428;2022-11-15T10:41:22;3.70;;;1.70;;
4434;SDS011;46552;52.150;8.428;2022-11-15T10:44:12;5.10;;;1.80;;
4434;SDS011;46552;52.150;8.428;2022-11-15T10:47:03;4.87;;;1.60;;
4434;SDS011;46552;52.150;8.428;2022-11-15T10:49:55;3.17;;;1.20;;
4434;SDS011;46552;52.150;8.428;2022-11-15T10:52:28;2.60;;;1.30;;
4434;SDS011;46552;52.150;8.428;2022-11-15T10:54:58;2.70;;;1.00;;
4434;SDS011;46552;52.150;8.428;2022-11-15T10:57:30;4.07;;;1.20;;
4434;SDS011;46552;52.150;8.428;2022-11-15T11:00:00;3.13;;;1.47;;
4434;SDS011;46552;52.150;8.428;2022-11-15T11:02:32;3.07;;;1.13;;
4434;SDS011;46552;52.150;8.428;2022-11-15T11:05:02;18.10;;;1.43;;
4434;SDS011;46552;52.150;8.428;2022-11-15T11:07:32;5.93;;;1.30;;
4434;SDS011;46552;52.150;8.428;2022-11-15T11:10:02;2.63;;;1.30;;
4434;SDS011;46552;52.150;8.428;2022-11-15T11:12:33;3.10;;;1.03;;
4434;SDS011;46552;52.150;8.428;2022-11-15T11:15:05;2.20;;;0.90;;
4434;SDS011;46552;52.150;8.428;2022-11-15T11:17:48;3.70;;;1.50;;
4434;SDS011;46552;52.150;8.428;2022-11-15T11:20:25;2.10;;;1.10;;
4434;SDS011;46552;52.150;8.428;2022-11-15T11:23:02;2.57;;;1.10;;
4434;SDS011;46552;52.150;8.428;2022-11-15T11:25:49;5.80;;;1.00;;
4434;SDS011;46552;52.150;8.428;2022-11-15T11:28:33;5.43;;;1.20;;
4434;SDS011;46552;52.150;8.428;2022-11-15T11:31:13;5.70;;;1.70;;
4434;SDS011;46552;52.150;8.428;2022-11-15T11:33:54;2.80;;;1.10;;
4434;SDS011;46552;52.150;8.428;2022-11-15T11:36:34;2.90;;;1.20;;
4434;SDS011;46552;52.150;8.428;2022-11-15T11:39:14;3.27;;;1.20;;
4434;SDS011;46552;52.150;8.428;2022-11-15T11:41:53;10.17;;;1.50;;
4434;SDS011;46552;52.150;8.428;2022-11-15T11:44:29;3.37;;;0.90;;
4434;SDS011;46552;52.150;8.428;2022-11-15T11:47:06;4.27;;;1.40;;
4434;SDS011;46552;52.150;8.428;2022-11-15T11:49:41;3.23;;;1.30;;
4434;SDS011;46552;52.150;8.428;2022-11-15T11:52:14;3.83;;;1.23;;
4434;SDS011;46552;52.150;8.428;2022-11-15T11:54:46;3.50;;;1.23;;
4434;SDS011;46552;52.150;8.428;2022-11-15T11:57:25;3.43;;;1.40;;
4434;SDS011;46552;52.150;8.428;2022-11-15T12:00:00;3.57;;;1.40;;
4434;SDS011;46552;52.150;8.428;2022-11-15T12:02:35;3.83;;;1.70;;
4434;SDS011;46552;52.150;8.428;2022-11-15T12:05:09;2.97;;;1.43;;
4434;SDS011;46552;52.150;8.428;2022-11-15T12:07:42;5.90;;;1.70;;
4434;SDS011;46552;52.150;8.428;2022-11-15T12:10:15;3.50;;;1.57;;
4434;SDS011;46552;52.150;8.428;2022-11-15T12:12:50;3.40;;;1.53;;
4434;SDS011;46552;52.150;8.428;2022-11-15T12:15:24;3.93;;;1.83;;
4434;SDS011;46552;52.150;8.428;2022-11-15T12:17:54;2.50;;;1.20;;
4434;SDS011;46552;52.150;8.428;2022-11-15T12:20:24;3.40;;;1.67;;
4434;SDS011;46552;52.150;8.428;2022-11-15T12:22:55;3.43;;;1.70;;
4434;SDS011;46552;52.150;8.428;2022-11-15T12:25:27;3.17;;;1.70;;
4434;SDS011;46552;52.150;8.428;2022-11-15T12:28:00;2.87;;;1.60;;
4434;SDS011;46552;52.150;8.428;2022-11-15T12:30:39;4.40;;;2.47;;
4434;SDS011;46552;52.150;8.428;2022-11-15T12:33:28;3.97;;;1.47;;
4434;SDS011;46552;52.150;8.428;2022-11-15T12:36:00;3.77;;;1.70;;
4434;SDS011;46552;52.150;8.428;2022-11-15T12:41:23;4.50;;;1.90;;
4434;SDS011;46552;52.150;8.428;2022-11-15T12:43:52;4.77;;;1.50;;
4434;SDS011;46552;52.150;8.428;2022-11-15T12:46:22;7.00;;;1.57;;
4434;SDS011;46552;52.150;8.428;2022-11-15T12:49:09;5.50;;;1.53;;
4434;SDS011;46552;52.150;8.428;2022-11-15T12:58:26;3.30;;;1.80;;
4434;SDS011;46552;52.150;8.428;2022-11-15T13:01:06;2.93;;;1.73;;
4434;SDS011;46552;52.150;8.428;2022-11-15T13:03:34;3.93;;;1.70;;
4434;SDS011;46552;52.150;8.428;2022-11-15T13:06:03;8.53;;;2.20;;
4434;SDS011;46552;52.150;8.428;2022-11-15T13:17:24;3.90;;;1.93;;
4434;SDS011;46552;52.150;8.428;2022-11-15T13:19:59;16.53;;;2.37;;
4434;SDS011;46552;52.150;8.428;2022-11-15T13:22:38;8.60;;;2.20;;
4434;SDS011;46552;52.150;8.428;2022-11-15T13:25:27;5.13;;;1.60;;
4434;SDS011;46552;52.150;8.428;2022-11-15T13:28:22;9.30;;;2.20;;
4434;SDS011;46552;52.150;8.428;2022-11-15T13:30:54;5.87;;;1.70;;
4434;SDS011;46552;52.150;8.428;2022-11-15T13:33:23;8.63;;;2.00;;
4434;SDS011;46552;52.150;8.428;2022-11-15T13:35:53;8.77;;;2.30;;
4434;SDS011;46552;52.150;8.428;2022-11-15T13:38:27;4.33;;;1.83;;
4434;SDS011;46552;52.150;8.428;2022-11-15T13:40:58;4.53;;;2.03;;
4434;SDS011;46552;52.150;8.428;2022-11-15T13:43:27;11.80;;;2.20;;
4434;SDS011;46552;52.150;8.428;2022-11-15T13:46:04;7.90;;;2.30;;
4434;SDS011;46552;52.150;8.428;2022-11-15T13:48:37;3.93;;;2.30;;
4434;SDS011;46552;52.150;8.428;2022-11-15T13:51:05;3.47;;;1.40;;
4434;SDS011;46552;52.150;8.428;2022-11-15T13:53:38;3.50;;;1.63;;
4434;SDS011;46552;52.150;8.428;2022-11-15T13:56:12;4.07;;;1.50;;
4434;SDS011;46552;52.150;8.428;2022-11-15T13:58:41;3.63;;;1.40;;
4434;SDS011;46552;52.150;8.428;2022-11-15T14:01:13;3.00;;;1.60;;
4434;SDS011;46552;52.150;8.428;2022-11-15T14:03:46;6.73;;;1.63;;
4434;SDS011;46552;52.150;8.428;2022-11-15T14:06:17;3.27;;;1.77;;
4434;SDS011;46552;52.150;8.428;2022-11-15T14:11:57;5.50;;;1.77;;
4434;SDS011;46552;52.150;8.428;2022-11-15T14:14:25;5.73;;;1.60;;
4434;SDS011;46552;52.150;8.428;2022-11-15T14:16:54;5.83;;;1.50;;
4434;SDS011;46552;52.150;8.428;2022-11-15T14:19:35;2.70;;;1.20;;
4434;SDS011;46552;52.150;8.428;2022-11-15T14:22:12;3.93;;;1.87;;
4434;SDS011;46552;52.150;8.428;2022-11-15T14:24:42;3.53;;;1.27;;
4434;SDS011;46552;52.150;8.428;2022-11-15T14:27:22;4.23;;;1.63;;
4434;SDS011;46552;52.150;8.428;2022-11-15T14:29:51;3.43;;;1.80;;
4434;SDS011;46552;52.150;8.428;2022-11-15T14:32:19;3.60;;;1.50;;
4434;SDS011;46552;52.150;8.428;2022-11-15T14:34:47;5.23;;;1.83;;
4434;SDS011;46552;52.150;8.428;2022-11-15T14:37:19;5.50;;;1.67;;
4434;SDS011;46552;52.150;8.428;2022-11-15T14:39:49;3.47;;;1.53;;
4434;SDS011;46552;52.150;8.428;2022-11-15T14:42:17;6.07;;;1.33;;
4434;SDS011;46552;52.150;8.428;2022-11-15T14:44:46;3.77;;;1.47;;
4434;SDS011;46552;52.150;8.428;2022-11-15T14:47:15;4.93;;;2.00;;
4434;SDS011;46552;52.150;8.428;2022-11-15T14:49:43;6.37;;;1.90;;
4434;SDS011;46552;52.150;8.428;2022-11-15T14:54:55;4.53;;;1.73;;
4434;SDS011;46552;52.150;8.428;2022-11-15T14:57:23;4.40;;;1.97;;
4434;SDS011;46552;52.150;8.428;2022-11-15T14:59:52;4.00;;;1.40;;
4434;SDS011;46552;52.150;8.428;2022-11-15T15:02:21;5.23;;;1.60;;
4434;SDS011;46552;52.150;8.428;2022-11-15T15:04:49;4.97;;;1.60;;
4434;SDS011;46552;52.150;8.428;2022-11-15T15:07:17;4.47;;;1.90;;
4434;SDS011;46552;52.150;8.428;2022-11-15T15:09:45;4.67;;;2.50;;
4434;SDS011;46552;52.150;8.428;2022-11-15T15:12:14;4.70;;;2.10;;
4434;SDS011;46552;52.150;8.428;2022-11-15T15:14:43;5.30;;;2.50;;
4434;SDS011;46552;52.150;8.428;2022-11-15T15:17:12;6.97;;;2.30;;
4434;SDS011;46552;52.150;8.428;2022-11-15T15:19:40;5.73;;;3.20;;
4434;SDS011;46552;52.150;8.428;2022-11-15T15:22:09;6.67;;;3.43;;
4434;SDS011;46552;52.150;8.428;2022-11-15T15:24:40;4.67;;;3.00;;
4434;SDS011;46552;52.150;8.428;2022-11-15T15:27:07;5.90;;;2.67;;
4434;SDS011;46552;52.150;8.428;2022-11-15T15:29:34;9.37;;;2.83;;
4434;SDS011;46552;52.150;8.428;2022-11-15T15:32:02;5.93;;;3.57;;
4434;SDS011;46552;52.150;8.428;2022-11-15T15:34:30;3.83;;;2.70;;
4434;SDS011;46552;52.150;8.428;2022-11-15T15:37:08;4.63;;;3.23;;
4434;SDS011;46552;52.150;8.428;2022-11-15T15:39:44;8.57;;;3.63;;
4434;SDS011;46552;52.150;8.428;2022-11-15T15:42:11;9.43;;;3.63;;